Time;durP1;ratioP1;P1;durP2;ratioP2;P2;SDS_P1;SDS_P2;PMS_P1;PMS_P2;Temp;Humidity;BMP_temperature;BMP_pressure;BME280_temperature;BME280_humidity;BME280_pressure;Samples;Min_cycle;Max_cycle;Signal;HPM_P1;HPM_P2
2023/03/25 00:00:57;;;;;;;3.40;1.40;;;;;;;6.30;100.00;98359.81;5096361;28;20024;-59
2023/03/25 00:03:25;;;;;;;3.50;1.50;;;;;;;6.25;100.00;98371.16;5098197;28;20035;-59
2023/03/25 00:05:53;;;;;;;2.40;1.42;;;;;;;6.31;100.00;98360.63;5095160;28;20024;-58
2023/03/25 00:08:18;;;;;;;4.65;1.50;;;;;;;6.33;100.00;98369.19;5091453;28;20094;-59
2023/03/25 00:10:44;;;;;;;4.65;1.70;;;;;;;6.40;100.00;98362.66;5101999;28;20016;-59
2023/03/25 00:13:12;;;;;;;3.60;1.40;;;;;;;6.39;100.00;98360.22;5096582;28;21323;-59
2023/03/25 00:15:44;;;;;;;2.42;1.10;;;;;;;6.40;100.00;98364.53;5096469;28;20040;-59
2023/03/25 00:18:10;;;;;;;3.00;1.42;;;;;;;6.36;100.00;98363.38;5100598;28;20107;-59
2023/03/25 00:20:35;;;;;;;2.65;1.60;;;;;;;6.37;100.00;98362.34;5096855;28;20028;-61
2023/03/25 00:23:01;;;;;;;2.28;1.48;;;;;;;6.31;100.00;98374.72;5103184;28;20035;-59
2023/03/25 00:25:26;;;;;;;3.50;1.55;;;;;;;6.30;100.00;98369.66;5094538;28;20024;-59
2023/03/25 00:27:52;;;;;;;2.20;1.50;;;;;;;6.33;100.00;98372.63;5098521;28;20028;-59
2023/03/25 00:30:18;;;;;;;5.25;1.70;;;;;;;6.39;100.00;98361.06;5100669;28;20830;-59
2023/03/25 00:32:51;;;;;;;3.88;1.95;;;;;;;6.37;100.00;98363.16;5101960;28;20030;-59
2023/03/25 00:35:20;;;;;;;3.58;1.70;;;;;;;6.39;100.00;98368.22;5097377;28;20024;-61
2023/03/25 00:37:46;;;;;;;3.97;1.70;;;;;;;6.38;100.00;98358.63;5100427;28;20325;-60
2023/03/25 00:40:12;;;;;;;7.93;1.67;;;;;;;6.41;100.00;98358.16;5102126;28;20077;-60
2023/03/25 00:42:43;;;;;;;6.93;1.75;;;;;;;6.44;100.00;98349.69;5097838;28;20043;-59
2023/03/25 00:45:09;;;;;;;;;;;;;;;6.42;100.00;98349.13;5100851;28;20546;-59
2023/03/25 00:47:35;;;;;;;3.55;1.67;;;;;;;6.39;100.00;98345.09;5094202;28;19915;-59
2023/03/25 00:50:02;;;;;;;2.15;1.60;;;;;;;6.39;100.00;98338.94;5097559;28;20039;-60
2023/03/25 00:52:27;;;;;;;4.20;1.80;;;;;;;6.41;100.00;98337.66;5102000;28;20035;-60
2023/03/25 00:54:53;;;;;;;3.00;1.70;;;;;;;6.47;100.00;98335.94;5097202;28;20038;-59
2023/03/25 00:57:18;;;;;;;3.55;1.73;;;;;;;6.46;100.00;98344.94;5100925;28;20060;-59
2023/03/25 00:59:44;;;;;;;6.65;2.13;;;;;;;6.47;100.00;98341.25;5096019;28;20463;-59
2023/03/25 01:02:10;;;;;;;6.28;2.05;;;;;;;6.52;100.00;98333.34;5102047;28;20355;-59
2023/03/25 01:04:38;;;;;;;5.00;2.10;;;;;;;6.51;100.00;98339.72;5101753;28;20354;-59
2023/03/25 01:07:03;;;;;;;8.65;2.40;;;;;;;6.51;100.00;98329.06;5095971;28;20040;-59
2023/03/25 01:09:29;;;;;;;4.40;2.00;;;;;;;6.53;100.00;98324.31;5100006;28;20027;-59
2023/03/25 01:11:54;;;;;;;7.75;2.30;;;;;;;6.52;100.00;98328.03;5099162;28;20046;-59
2023/03/25 01:14:23;;;;;;;6.82;2.58;;;;;;;6.51;100.00;98326.41;5092031;28;20380;-59
2023/03/25 01:16:48;;;;;;;8.35;1.98;;;;;;;6.58;100.00;98327.06;5094900;28;20035;-59
2023/03/25 01:19:14;;;;;;;8.35;2.50;;;;;;;6.49;100.00;98323.19;5095096;28;20011;-59
2023/03/25 01:21:39;;;;;;;6.68;2.63;;;;;;;6.50;100.00;98329.31;5096428;28;20024;-59
2023/03/25 01:24:06;;;;;;;6.10;2.28;;;;;;;6.48;100.00;98324.22;5101866;28;20039;-59
2023/03/25 01:26:31;;;;;;;9.38;2.92;;;;;;;6.46;100.00;98327.13;5091767;28;20110;-59
2023/03/25 01:28:57;;;;;;;7.95;3.00;;;;;;;6.36;100.00;98326.91;5093418;28;20027;-59
2023/03/25 01:31:22;;;;;;;7.15;2.85;;;;;;;6.31;100.00;98313.50;5099227;28;20456;-60
2023/03/25 01:33:48;;;;;;;8.65;3.35;;;;;;;6.34;100.00;98312.22;5100682;28;20028;-60
2023/03/25 01:36:14;;;;;;;6.65;3.00;;;;;;;6.31;100.00;98310.84;5100590;28;20047;-59
2023/03/25 01:38:39;;;;;;;7.97;3.42;;;;;;;6.32;100.00;98319.66;5095010;28;20402;-59
2023/03/25 01:41:05;;;;;;;8.75;3.20;;;;;;;6.34;100.00;98328.19;5096637;28;20032;-60
2023/03/25 01:43:31;;;;;;;7.13;3.63;;;;;;;6.32;100.00;98323.13;5098916;28;20039;-60
2023/03/25 01:45:57;;;;;;;6.90;3.15;;;;;;;6.24;100.00;98316.34;5102034;28;20036;-59
2023/03/25 01:48:31;;;;;;;7.60;3.83;;;;;;;6.28;100.00;98305.22;5098235;28;20030;-59
2023/03/25 01:51:00;;;;;;;13.18;3.80;;;;;;;6.25;100.00;98309.94;5091787;28;20031;-59
2023/03/25 01:53:29;;;;;;;11.98;4.40;;;;;;;6.20;100.00;98301.06;5100227;28;20407;-59
2023/03/25 01:55:55;;;;;;;9.13;4.10;;;;;;;6.21;100.00;98300.81;5092665;28;20032;-59
2023/03/25 01:58:20;;;;;;;9.23;4.32;;;;;;;6.22;100.00;98291.00;5099211;28;20442;-59
2023/03/25 02:00:46;;;;;;;10.32;3.90;;;;;;;6.23;100.00;98298.72;5090809;28;20081;-59
2023/03/25 02:03:12;;;;;;;12.68;4.18;;;;;;;6.19;100.00;98297.59;5093454;28;20027;-59
2023/03/25 02:05:48;;;;;;;9.68;4.15;;;;;;;6.20;100.00;98299.22;5095424;28;20043;-59
2023/03/25 02:08:14;;;;;;;9.23;3.95;;;;;;;6.26;100.00;98300.09;5097624;28;20024;-60
2023/03/25 02:10:40;;;;;;;10.70;4.00;;;;;;;6.26;100.00;98286.81;5098386;28;20581;-60
2023/03/25 02:13:06;;;;;;;17.00;4.18;;;;;;;6.24;100.00;98287.06;5090189;28;20048;-60
2023/03/25 02:15:58;;;;;;;9.32;3.30;;;;;;;6.29;100.00;98280.19;5093848;28;20034;-59
2023/03/25 02:18:36;;;;;;;12.13;3.35;;;;;;;6.30;100.00;98281.84;5082054;28;20504;-60
2023/03/25 02:21:22;;;;;;;6.65;2.95;;;;;;;6.32;100.00;98285.06;5099423;28;20062;-59
2023/03/25 02:24:28;;;;;;;9.00;3.17;;;;;;;6.35;100.00;98288.06;5099099;28;20036;-59
2023/03/25 02:27:14;;;;;;;11.10;2.95;;;;;;;6.36;100.00;98288.84;5096840;28;20058;-59
2023/03/25 02:30:24;;;;;;;5.13;2.50;;;;;;;6.44;100.00;98288.47;5085905;28;20126;-59
2023/03/25 02:32:55;;;;;;;11.43;2.80;;;;;;;6.44;100.00;98294.63;5084302;28;20111;-59
2023/03/25 02:35:42;;;;;;;7.90;2.60;;;;;;;6.50;100.00;98294.72;5095443;28;20027;-59
2023/03/25 02:38:30;;;;;;;11.35;3.67;;;;;;;6.47;100.00;98285.34;5082682;28;20389;-59
2023/03/25 02:40:58;;;;;;;10.15;3.10;;;;;;;6.46;100.00;98281.88;5100249;28;20038;-60
2023/03/25 02:43:31;;;;;;;5.97;2.70;;;;;;;6.54;100.00;98275.38;5078310;28;20474;-60
2023/03/25 02:45:58;;;;;;;9.60;2.92;;;;;;;6.48;100.00;98263.00;5092918;28;20074;-60
2023/03/25 02:48:33;;;;;;;6.38;2.78;;;;;;;6.50;100.00;98266.22;5095696;28;20847;-60
2023/03/25 02:50:59;;;;;;;9.20;2.70;;;;;;;6.56;100.00;98275.09;5097779;28;20044;-60
2023/03/25 02:53:28;;;;;;;8.93;3.03;;;;;;;6.48;100.00;98271.78;5086135;28;20020;-59
2023/03/25 02:55:56;;;;;;;8.15;2.75;;;;;;;6.56;100.00;98275.91;5093538;28;20093;-59
2023/03/25 02:58:23;;;;;;;8.27;2.70;;;;;;;6.64;100.00;98282.69;5097661;28;20034;-60
2023/03/25 03:00:49;;;;;;;8.85;2.60;;;;;;;6.61;100.00;98288.50;5094967;28;20027;-59
2023/03/25 03:03:14;;;;;;;8.75;2.95;;;;;;;6.60;100.00;98279.72;5099230;28;20462;-59
2023/03/25 03:05:49;;;;;;;6.63;2.15;;;;;;;6.65;100.00;98285.13;5093362;28;20024;-59
2023/03/25 03:08:30;;;;;;;6.85;2.50;;;;;;;6.62;100.00;98268.84;5088520;28;20035;-59
2023/03/25 03:11:20;;;;;;;10.57;2.92;;;;;;;6.64;100.00;98256.91;5098917;28;20081;-59
2023/03/25 03:13:54;;;;;;;12.40;3.15;;;;;;;6.62;100.00;98258.19;5093270;28;20070;-59
2023/03/25 03:16:35;;;;;;;8.05;2.33;;;;;;;6.65;100.00;98271.00;5093459;28;20119;-59
2023/03/25 03:19:22;;;;;;;10.05;2.35;;;;;;;6.76;100.00;98274.66;5092688;28;20496;-59
2023/03/25 03:22:13;;;;;;;8.20;2.22;;;;;;;6.80;100.00;98276.59;5092687;28;20028;-60
2023/03/25 03:24:45;;;;;;;8.10;2.50;;;;;;;6.74;100.00;98282.06;5092563;28;20075;-59
2023/03/25 03:27:15;;;;;;;8.32;2.05;;;;;;;6.75;100.00;98289.03;5088182;28;20036;-59
2023/03/25 03:29:45;;;;;;;8.63;2.03;;;;;;;6.79;100.00;98290.97;5090555;28;20477;-59
2023/03/25 03:32:15;;;;;;;11.15;2.70;;;;;;;6.84;100.00;98295.56;5094927;28;20123;-60
2023/03/25 03:34:45;;;;;;;6.40;2.10;;;;;;;6.81;100.00;98298.69;5072608;28;20032;-59
2023/03/25 03:37:20;;;;;;;6.78;2.38;;;;;;;6.84;100.00;98291.06;5094760;28;20623;-60
2023/03/25 03:39:45;;;;;;;9.55;2.50;;;;;;;6.82;100.00;98298.47;5086740;28;20376;-60
2023/03/25 03:42:19;;;;;;;7.85;2.20;;;;;;;6.78;100.00;98299.19;5067514;28;20020;-59
2023/03/25 03:44:48;;;;;;;8.82;2.72;;;;;;;6.79;100.00;98304.28;5091829;28;20035;-60
2023/03/25 03:47:17;;;;;;;10.38;2.38;;;;;;;6.77;100.00;98302.91;5093603;28;20073;-60
2023/03/25 03:49:46;;;;;;;8.00;2.40;;;;;;;6.70;100.00;98308.38;5094318;28;20104;-59
2023/03/25 03:52:36;;;;;;;9.55;2.53;;;;;;;6.67;100.00;98311.53;5083004;28;20028;-59
2023/03/25 03:55:36;;;;;;;7.97;2.40;;;;;;;6.63;100.00;98313.03;5099021;28;20092;-60
2023/03/25 03:58:15;;;;;;;6.45;2.13;;;;;;;6.66;100.00;98324.03;5077719;28;20032;-59
2023/03/25 04:00:42;;;;;;;8.18;2.38;;;;;;;6.63;100.00;98345.78;5099796;28;20551;-59
2023/03/25 04:03:23;;;;;;;3.13;1.42;;;;;;;6.75;100.00;98327.09;5097014;28;20157;-59
2023/03/25 04:05:52;;;;;;;6.47;2.50;;;;;;;6.62;100.00;98344.19;5090458;28;20063;-59
2023/03/25 04:08:25;;;;;;;8.88;2.08;;;;;;;6.49;100.00;98323.19;5083563;28;20078;-59
2023/03/25 04:11:11;;;;;;;4.60;1.50;;;;;;;6.54;100.00;98336.59;5099032;28;20028;-59
2023/03/25 04:13:38;;;;;;;7.20;2.30;;;;;;;6.40;100.00;98332.59;5083842;28;20046;-59
2023/03/25 04:16:05;;;;;;;9.93;1.90;;;;;;;6.28;100.00;98327.28;5092346;28;20055;-60
2023/03/25 04:18:32;;;;;;;2.42;1.40;;;;;;;6.19;100.00;98332.19;5090273;28;20397;-59
2023/03/25 04:20:58;;;;;;;5.10;1.52;;;;;;;6.14;100.00;98341.91;5100031;28;20119;-60
2023/03/25 04:23:23;;;;;;;5.97;1.98;;;;;;;6.01;100.00;98340.31;5098462;28;20378;-59
2023/03/25 04:25:51;;;;;;;4.25;2.25;;;;;;;5.97;100.00;98347.97;5101390;28;20042;-59
2023/03/25 04:28:18;;;;;;;3.72;2.00;;;;;;;5.95;100.00;98341.25;5098693;28;20069;-59
2023/03/25 04:30:44;;;;;;;9.65;2.20;;;;;;;5.99;100.00;98335.25;5098650;28;20031;-59
2023/03/25 04:33:11;;;;;;;5.07;2.15;;;;;;;5.97;100.00;98331.22;5107531;28;20031;-59
2023/03/25 04:35:37;;;;;;;7.18;2.05;;;;;;;6.19;100.00;98340.19;5104222;28;20024;-59
2023/03/25 04:38:04;;;;;;;6.75;2.55;;;;;;;6.16;100.00;98345.16;5100048;28;20073;-59
2023/03/25 04:40:30;;;;;;;5.53;1.98;;;;;;;6.13;100.00;98341.09;5093825;28;20031;-59
2023/03/25 04:42:55;;;;;;;5.72;1.70;;;;;;;6.24;100.00;98329.63;5093098;28;20027;-59
2023/03/25 04:45:21;;;;;;;5.97;2.10;;;;;;;6.11;100.00;98327.22;5096985;28;20031;-59
2023/03/25 04:47:47;;;;;;;4.28;1.90;;;;;;;6.04;100.00;98342.50;5094609;28;20012;-59
2023/03/25 04:50:19;;;;;;;4.38;1.40;;;;;;;5.97;100.00;98337.34;5099887;28;20114;-59
2023/03/25 04:52:45;;;;;;;2.20;1.48;;;;;;;5.90;100.00;98343.78;5100482;28;20031;-59
2023/03/25 04:55:16;;;;;;;4.10;1.50;;;;;;;5.79;100.00;98334.75;5101806;28;20085;-59
2023/03/25 04:57:46;;;;;;;4.75;1.55;;;;;;;5.66;100.00;98338.47;5096551;28;20056;-59
2023/03/25 05:00:13;;;;;;;3.97;1.55;;;;;;;5.57;100.00;98342.53;5100707;28;20019;-59
2023/03/25 05:02:44;;;;;;;4.30;1.50;;;;;;;5.54;100.00;98338.50;5102356;28;20114;-59
2023/03/25 05:05:16;;;;;;;3.78;1.70;;;;;;;5.69;100.00;98330.06;5096781;28;20100;-59
2023/03/25 05:07:44;;;;;;;4.28;1.75;;;;;;;5.73;100.00;98338.38;5096559;28;20325;-60
2023/03/25 05:10:10;;;;;;;6.05;1.60;;;;;;;5.67;100.00;98344.63;5102217;28;20034;-59
2023/03/25 05:12:35;;;;;;;2.92;1.70;;;;;;;5.70;100.00;98342.28;5099207;28;20491;-59
2023/03/25 05:15:00;;;;;;;7.32;1.80;;;;;;;5.61;100.00;98338.38;5098330;28;20032;-59
2023/03/25 05:17:28;;;;;;;7.40;2.17;;;;;;;5.58;100.00;98344.16;5095375;28;20161;-59
2023/03/25 05:19:55;;;;;;;5.40;1.73;;;;;;;5.47;100.00;98339.66;5098135;28;20028;-59
2023/03/25 05:22:21;;;;;;;8.23;2.05;;;;;;;5.45;100.00;98339.06;5102071;28;20035;-59
2023/03/25 05:24:47;;;;;;;5.15;1.88;;;;;;;5.40;100.00;98348.53;5093417;28;20078;-59
2023/03/25 05:27:12;;;;;;;5.10;1.77;;;;;;;5.46;100.00;98353.97;5091952;28;20593;-59
2023/03/25 05:29:38;;;;;;;5.70;2.00;;;;;;;5.55;100.00;98360.56;5096882;28;20019;-60
2023/03/25 05:32:03;;;;;;;9.30;2.03;;;;;;;5.51;100.00;98365.53;5095592;28;20067;-59
2023/03/25 05:34:29;;;;;;;5.60;1.88;;;;;;;5.62;100.00;98374.56;5091925;28;20026;-60
2023/03/25 05:36:55;;;;;;;7.28;2.00;;;;;;;5.77;100.00;98366.91;5094981;28;20106;-59
2023/03/25 05:39:21;;;;;;;7.13;2.10;;;;;;;5.80;100.00;98358.47;5102440;28;20054;-59
2023/03/25 05:41:47;;;;;;;6.65;1.73;;;;;;;5.84;100.00;98364.97;5097534;28;20481;-59
2023/03/25 05:44:14;;;;;;;6.63;1.95;;;;;;;5.86;100.00;98370.03;5096051;28;20046;-59
2023/03/25 05:46:39;;;;;;;6.32;1.98;;;;;;;5.93;100.00;98372.56;5102696;28;20032;-59
2023/03/25 05:49:05;;;;;;;7.80;1.90;;;;;;;5.86;100.00;98367.38;5093891;28;20035;-59
2023/03/25 05:51:38;;;;;;;12.07;2.63;;;;;;;5.88;100.00;98375.94;5099991;28;20304;-59
2023/03/25 05:54:09;;;;;;;3.95;1.92;;;;;;;5.78;100.00;98373.84;5097708;28;20368;-59
2023/03/25 05:56:35;;;;;;;8.80;1.70;;;;;;;5.92;100.00;98368.31;5098889;28;20031;-59
2023/03/25 05:59:02;;;;;;;9.52;1.40;;;;;;;5.99;100.00;98372.50;5095232;28;20359;-59
2023/03/25 06:01:27;;;;;;;7.72;2.03;;;;;;;6.68;100.00;98369.84;5099361;28;20375;-59
2023/03/25 06:03:53;;;;;;;5.88;1.70;;;;;;;6.66;100.00;98360.50;5099203;28;20027;-59
2023/03/25 06:06:18;;;;;;;5.53;2.13;;;;;;;7.55;94.77;98366.00;5098029;28;20046;-60
2023/03/25 06:08:45;;;;;;;4.80;1.60;;;;;;;8.39;91.73;98359.69;5094472;28;20466;-59
2023/03/25 06:11:13;;;;;;;4.90;1.42;;;;;;;7.67;94.54;98360.56;5099467;28;20096;-59
2023/03/25 06:13:39;;;;;;;5.05;1.90;;;;;;;6.76;99.62;98365.19;5094064;28;20038;-59
2023/03/25 06:16:07;;;;;;;4.25;1.70;;;;;;;8.08;96.33;98363.00;5097048;28;20036;-60
2023/03/25 06:18:33;;;;;;;3.20;1.30;;;;;;;7.80;93.17;98372.75;5097927;28;20035;-59
2023/03/25 06:20:58;;;;;;;4.25;1.70;;;;;;;7.06;97.95;98359.59;5099510;28;20032;-59
2023/03/25 06:23:25;;;;;;;6.00;1.60;;;;;;;7.19;99.52;98353.16;5098868;28;20621;-59
2023/03/25 06:25:51;;;;;;;5.05;1.80;;;;;;;6.76;100.00;98359.88;5090772;28;20023;-59
2023/03/25 06:28:19;;;;;;;7.32;2.10;;;;;;;7.11;100.00;98351.69;5094670;28;20027;-60
2023/03/25 06:30:45;;;;;;;4.38;1.77;;;;;;;7.74;95.53;98344.41;5096163;28;20059;-59
2023/03/25 06:33:12;;;;;;;9.18;2.42;;;;;;;6.88;99.72;98355.28;5095065;28;20052;-59
2023/03/25 06:35:39;;;;;;;7.47;1.85;;;;;;;6.67;100.00;98348.81;5094160;28;20031;-59
2023/03/25 06:38:04;;;;;;;10.90;1.88;;;;;;;7.21;100.00;98341.19;5097438;28;20028;-62
2023/03/25 06:40:30;;;;;;;6.85;1.60;;;;;;;8.72;92.71;98349.88;5099412;28;20128;-59
2023/03/25 06:42:55;;;;;;;6.18;1.67;;;;;;;8.22;91.67;98350.91;5098445;28;20331;-59
2023/03/25 06:45:21;;;;;;;6.72;1.67;;;;;;;7.40;97.20;98344.44;5099116;28;20027;-59
2023/03/25 06:47:46;;;;;;;4.70;1.80;;;;;;;7.11;99.88;98355.19;5096869;28;20148;-61
2023/03/25 06:50:12;;;;;;;10.60;2.20;;;;;;;7.76;98.92;98348.44;5087814;28;20485;-60
2023/03/25 06:52:37;;;;;;;5.70;1.70;;;;;;;8.62;94.12;98350.59;5094107;28;20036;-60
2023/03/25 06:55:03;;;;;;;8.50;2.17;;;;;;;8.56;93.18;98353.44;5097454;28;20028;-59
2023/03/25 06:57:29;;;;;;;11.63;2.20;;;;;;;8.59;93.65;98355.63;5096355;28;20034;-59
2023/03/25 06:59:54;;;;;;;7.57;2.00;;;;;;;7.84;97.97;98344.53;5099966;28;20035;-59
2023/03/25 07:02:19;;;;;;;8.63;2.10;;;;;;;8.08;98.10;98360.31;5096803;28;20023;-59
2023/03/25 07:04:45;;;;;;;6.60;1.88;;;;;;;8.05;99.15;98364.28;5095798;28;20840;-59
2023/03/25 07:07:10;;;;;;;11.85;2.00;;;;;;;7.92;100.00;98356.66;5093537;28;20244;-59
2023/03/25 07:09:36;;;;;;;11.55;2.70;;;;;;;7.73;100.00;98354.25;5094447;28;20081;-59
2023/03/25 07:12:01;;;;;;;15.63;2.85;;;;;;;7.40;100.00;98346.28;5100116;28;20036;-59
2023/03/25 07:14:27;;;;;;;14.10;2.60;;;;;;;7.36;100.00;98356.63;5094288;28;20028;-59
2023/03/25 07:16:52;;;;;;;14.02;2.28;;;;;;;7.34;100.00;98348.88;5096477;28;20031;-59
2023/03/25 07:19:18;;;;;;;11.70;2.63;;;;;;;7.42;100.00;98358.34;5093291;28;20032;-59
2023/03/25 07:21:43;;;;;;;15.80;2.53;;;;;;;7.44;100.00;98350.91;5093319;28;20028;-59
2023/03/25 07:24:09;;;;;;;12.43;2.22;;;;;;;7.17;100.00;98344.59;5095260;28;20032;-59
2023/03/25 07:26:34;;;;;;;11.13;2.53;;;;;;;7.35;100.00;98347.81;5095661;28;20016;-59
2023/03/25 07:29:00;;;;;;;19.45;2.53;;;;;;;7.85;100.00;98343.47;5092320;28;20028;-60
2023/03/25 07:31:25;;;;;;;11.45;2.75;;;;;;;7.99;100.00;98341.28;5097766;28;20069;-60
2023/03/25 07:33:51;;;;;;;13.18;2.50;;;;;;;8.32;100.00;98342.22;5091935;28;20063;-60
2023/03/25 07:36:16;;;;;;;14.13;2.63;;;;;;;8.67;96.13;98336.47;5088315;28;20035;-58
2023/03/25 07:38:44;;;;;;;14.18;2.50;;;;;;;9.38;90.26;98336.28;5093886;28;20031;-60
2023/03/25 07:41:10;;;;;;;12.07;2.67;;;;;;;9.21;89.34;98343.63;5094589;28;20115;-60
2023/03/25 07:43:36;;;;;;;12.73;2.50;;;;;;;9.40;88.74;98354.78;5098258;28;20159;-60
2023/03/25 07:46:02;;;;;;;17.33;3.20;;;;;;;10.07;85.44;98348.78;5092678;28;20040;-59
2023/03/25 07:48:27;;;;;;;13.93;2.20;;;;;;;9.10;91.36;98345.44;5097178;28;20026;-60
2023/03/25 07:50:53;;;;;;;12.10;1.88;;;;;;;8.53;94.17;98337.94;5098538;28;20347;-60
2023/03/25 07:53:18;;;;;;;14.43;2.53;;;;;;;8.35;95.09;98347.03;5099954;28;20140;-60
2023/03/25 07:55:49;;;;;;;6.35;1.98;;;;;;;8.18;93.32;98339.09;5094518;28;20484;-60
2023/03/25 07:58:15;;;;;;;14.13;2.60;;;;;;;8.56;94.04;98330.22;5094912;28;20506;-61
2023/03/25 08:00:41;;;;;;;15.05;2.40;;;;;;;8.59;94.10;98315.56;5092016;28;20039;-59
2023/03/25 08:03:06;;;;;;;11.35;2.10;;;;;;;8.73;93.39;98335.47;5092142;28;20102;-59
2023/03/25 08:05:31;;;;;;;12.82;2.42;;;;;;;9.18;91.79;98336.94;5096989;28;20031;-58
2023/03/25 08:08:00;;;;;;;15.15;2.65;;;;;;;8.88;92.54;98331.34;5088873;28;20027;-58
2023/03/25 08:10:25;;;;;;;12.52;2.65;;;;;;;8.81;92.57;98336.88;5095034;28;20550;-58
2023/03/25 08:12:51;;;;;;;12.65;2.20;;;;;;;8.68;92.47;98348.78;5097665;28;20036;-58
2023/03/25 08:15:17;;;;;;;15.30;2.70;;;;;;;8.37;95.26;98345.75;5098628;28;20055;-61
2023/03/25 08:17:42;;;;;;;10.95;2.13;;;;;;;8.16;95.71;98351.88;5087692;28;20028;-61
2023/03/25 08:20:08;;;;;;;10.23;1.95;;;;;;;8.15;94.47;98361.75;5096737;28;20080;-58
2023/03/25 08:22:35;;;;;;;12.18;2.30;;;;;;;8.03;94.83;98416.28;5082718;28;20020;-60
2023/03/25 08:25:00;;;;;;;6.32;1.45;;;;;;;7.42;93.20;98462.31;5093647;28;20035;-60
2023/03/25 08:27:26;;;;;;;7.05;1.10;;;;;;;5.82;98.36;98451.31;5091025;28;20020;-58
2023/03/25 08:29:56;;;;;;;3.25;1.35;;;;;;;5.31;100.00;98445.56;5094237;28;20036;-59
2023/03/25 08:32:26;;;;;;;3.38;1.58;;;;;;;5.46;100.00;98437.16;5101326;28;20074;-59
2023/03/25 08:34:51;;;;;;;1.58;1.42;;;;;;;5.50;100.00;98437.53;5103331;28;20039;-59
2023/03/25 08:37:16;;;;;;;3.58;1.60;;;;;;;5.64;100.00;98425.63;5098432;28;20865;-60
2023/03/25 08:39:43;;;;;;;1.55;1.30;;;;;;;5.91;100.00;98422.53;5099285;28;20031;-60
2023/03/25 08:42:10;;;;;;;1.80;1.50;;;;;;;5.98;100.00;98412.59;5097618;28;20050;-60
2023/03/25 08:44:35;;;;;;;2.95;1.85;;;;;;;6.17;97.95;98398.13;5100365;28;20414;-59
2023/03/25 08:47:01;;;;;;;2.38;1.80;;;;;;;6.63;96.20;98419.53;5089610;28;20317;-59
2023/03/25 08:49:26;;;;;;;1.60;1.38;;;;;;;7.35;93.54;98421.66;5102327;28;20488;-59
2023/03/25 08:51:52;;;;;;;3.55;1.40;;;;;;;7.60;91.99;98423.13;5098801;28;20028;-59
2023/03/25 08:54:17;;;;;;;3.00;1.35;;;;;;;7.77;89.37;98445.28;5099806;28;20031;-59
2023/03/25 08:56:43;;;;;;;1.95;1.20;;;;;;;7.65;89.93;98447.22;5095989;28;20069;-60
2023/03/25 08:59:08;;;;;;;5.72;1.40;;;;;;;8.07;90.28;98465.47;5101065;28;20480;-59
2023/03/25 09:01:34;;;;;;;4.75;1.30;;;;;;;7.00;89.83;98446.63;5095589;28;20035;-59
2023/03/25 09:03:59;;;;;;;2.45;0.90;;;;;;;7.04;92.83;98442.47;5098768;28;20020;-60
2023/03/25 09:06:25;;;;;;;2.28;1.00;;;;;;;8.55;87.78;98448.00;5095047;28;20131;-60
2023/03/25 09:08:51;;;;;;;4.55;1.98;;;;;;;9.87;82.79;98439.66;5092456;28;20028;-58
2023/03/25 09:11:16;;;;;;;3.33;1.52;;;;;;;11.06;73.85;98441.84;5097415;28;20032;-59
2023/03/25 09:13:42;;;;;;;5.05;2.70;;;;;;;10.74;75.36;98435.59;5102191;28;20405;-59
2023/03/25 09:16:08;;;;;;;3.25;1.30;;;;;;;11.34;75.05;98436.03;5097840;28;20415;-59
2023/03/25 09:18:35;;;;;;;5.35;1.48;;;;;;;9.58;77.58;98437.28;5093809;28;20123;-59
2023/03/25 09:21:01;;;;;;;4.68;2.10;;;;;;;9.55;80.08;98427.09;5103929;28;20028;-59
2023/03/25 09:23:26;;;;;;;3.63;1.67;;;;;;;8.46;84.06;98425.44;5095965;28;20020;-59
2023/03/25 09:25:52;;;;;;;2.08;1.20;;;;;;;9.19;85.96;98444.72;5092451;28;20069;-58
2023/03/25 09:28:18;;;;;;;3.88;1.30;;;;;;;9.45;84.05;98443.88;5099261;28;20043;-59
2023/03/25 09:30:43;;;;;;;5.13;1.98;;;;;;;9.22;90.34;98450.34;5099521;28;20032;-58
2023/03/25 09:33:08;;;;;;;24.13;9.20;;;;;;;8.31;91.30;98434.84;5098515;28;20096;-58
2023/03/25 09:35:34;;;;;;;10.00;2.17;;;;;;;8.83;88.95;98439.78;5101149;28;20032;-59
2023/03/25 09:37:59;;;;;;;9.07;1.88;;;;;;;9.02;82.67;98431.44;5100262;28;20024;-58
2023/03/25 09:40:25;;;;;;;7.03;2.15;;;;;;;9.31;84.29;98436.50;5098056;28;20431;-61
2023/03/25 09:43:06;;;;;;;3.10;1.50;;;;;;;9.26;85.49;98423.91;5080887;28;20027;-59
2023/03/25 09:45:42;;;;;;;5.90;1.58;;;;;;;9.05;84.01;98422.91;5102444;28;20525;-60
2023/03/25 09:48:14;;;;;;;5.72;1.42;;;;;;;9.16;85.33;98426.47;5101896;28;20130;-60
2023/03/25 09:50:39;;;;;;;7.40;1.60;;;;;;;9.17;84.04;98434.25;5102975;28;20150;-60
2023/03/25 09:53:26;;;;;;;3.83;1.50;;;;;;;9.16;83.59;98440.69;5104133;28;20042;-60
2023/03/25 09:55:51;;;;;;;6.28;2.38;;;;;;;9.12;83.69;98436.88;5093207;28;20540;-60
2023/03/25 09:58:37;;;;;;;13.90;7.60;;;;;;;9.15;85.06;98449.75;5096601;28;20055;-60
2023/03/25 10:01:21;;;;;;;52.53;32.97;;;;;;;9.37;82.65;98454.25;5095681;28;20071;-59
2023/03/25 10:03:50;;;;;;;38.88;21.67;;;;;;;9.45;80.94;98454.56;5104340;28;20053;-61
2023/03/25 10:06:20;;;;;;;40.92;22.25;;;;;;;9.50;78.63;98465.31;5095462;28;20082;-58
2023/03/25 10:08:57;;;;;;;24.05;14.15;;;;;;;9.71;78.51;98463.63;5093272;28;20500;-59
2023/03/25 10:11:25;;;;;;;11.27;2.97;;;;;;;9.58;78.84;98461.38;5102382;28;20027;-58
2023/03/25 10:14:17;;;;;;;7.30;1.98;;;;;;;9.36;77.35;98449.94;5090064;28;20441;-61
2023/03/25 10:17:04;;;;;;;6.13;3.70;;;;;;;9.36;77.79;98457.94;5089216;28;20059;-61
2023/03/25 10:19:42;;;;;;;9.75;3.17;;;;;;;9.35;78.15;98465.19;5097310;28;20027;-59
2023/03/25 10:22:15;;;;;;;13.23;5.57;;;;;;;9.46;73.70;98461.56;5092466;28;20338;-60
2023/03/25 10:24:47;;;;;;;6.97;2.50;;;;;;;10.36;72.31;98463.59;5096241;28;20024;-59
2023/03/25 10:27:22;;;;;;;21.90;7.82;;;;;;;10.26;70.55;98453.59;5091565;28;20673;-60
2023/03/25 10:29:56;;;;;;;18.70;6.80;;;;;;;10.51;71.09;98452.94;5097016;28;20028;-60
2023/03/25 10:32:35;;;;;;;20.73;9.60;;;;;;;10.56;71.76;98462.88;5068716;28;20046;-60
2023/03/25 10:35:02;;;;;;;32.42;14.32;;;;;;;10.69;69.52;98466.94;5092665;28;20043;-59
2023/03/25 10:37:30;;;;;;;24.63;11.38;;;;;;;10.42;69.92;98467.88;5096076;28;20032;-59
2023/03/25 10:40:13;;;;;;;30.58;16.45;;;;;;;10.80;68.63;98460.56;5094443;28;20028;-60
2023/03/25 10:42:40;;;;;;;20.02;9.90;;;;;;;11.01;67.39;98459.56;5096066;28;20115;-60
2023/03/25 10:45:13;;;;;;;16.70;7.03;;;;;;;11.05;67.30;98453.66;5097240;28;20216;-63
2023/03/25 10:47:38;;;;;;;14.18;6.38;;;;;;;10.78;66.90;98468.03;5093278;28;20042;-59
2023/03/25 10:50:04;;;;;;;17.65;8.57;;;;;;;10.79;67.18;98461.63;5093223;28;20465;-61
2023/03/25 10:52:30;;;;;;;19.17;7.72;;;;;;;10.79;67.49;98467.00;5089720;28;20028;-60
2023/03/25 10:54:55;;;;;;;20.30;11.27;;;;;;;10.66;68.39;98472.81;5092304;28;20039;-60
2023/03/25 10:57:24;;;;;;;23.05;10.02;;;;;;;10.71;69.76;98487.06;5096355;28;20088;-60
2023/03/25 11:00:11;;;;;;;8.45;3.03;;;;;;;10.65;62.92;98457.81;5095172;28;20470;-60
2023/03/25 11:02:36;;;;;;;25.15;11.70;;;;;;;10.73;69.03;98474.22;5094558;28;20490;-59
2023/03/25 11:05:03;;;;;;;12.73;6.55;;;;;;;10.76;67.90;98473.69;5091258;28;20078;-59
2023/03/25 11:07:34;;;;;;;8.25;4.30;;;;;;;10.60;68.79;98471.19;5090925;28;20027;-59
2023/03/25 11:10:13;;;;;;;11.70;2.85;;;;;;;10.55;68.62;98472.75;5102431;27;20147;-59
2023/03/25 11:12:44;;;;;;;10.77;3.03;;;;;;;10.68;67.87;98468.00;5094732;28;20047;-59
2023/03/25 11:15:14;;;;;;;8.98;2.35;;;;;;;10.57;68.17;98481.34;5093105;28;20134;-59
2023/03/25 11:17:42;;;;;;;9.65;3.50;;;;;;;10.54;69.62;98475.72;5092513;28;20040;-59
2023/03/25 11:20:16;;;;;;;9.35;3.90;;;;;;;10.34;72.73;98481.78;5095264;28;20080;-59
2023/03/25 11:22:45;;;;;;;14.13;4.20;;;;;;;9.59;79.89;98510.34;5082913;28;20031;-59
2023/03/25 11:25:25;;;;;;;20.15;8.77;;;;;;;9.55;82.24;98501.22;5096073;28;20089;-59
2023/03/25 11:27:58;;;;;;;31.48;11.93;;;;;;;10.55;81.23;98507.59;5088735;28;20050;-59
2023/03/25 11:30:24;;;;;;;36.70;11.60;;;;;;;11.14;78.47;98500.38;5091169;28;20049;-59
2023/03/25 11:33:02;;;;;;;41.67;12.07;;;;;;;11.44;75.71;98499.63;5095329;28;20481;-59
2023/03/25 11:35:30;;;;;;;22.77;7.03;;;;;;;11.26;76.77;98492.88;5095076;28;20039;-59
2023/03/25 11:38:00;;;;;;;6.13;2.40;;;;;;;11.15;75.97;98485.88;5094501;28;20425;-59
2023/03/25 11:40:26;;;;;;;5.05;1.80;;;;;;;11.35;73.23;98474.38;5091597;28;20012;-60
2023/03/25 11:42:53;;;;;;;5.05;1.60;;;;;;;11.33;71.92;98468.47;5081221;28;20208;-59